Time;durP1;ratioP1;P1;durP2;ratioP2;P2;SDS_P1;SDS_P2;PMS_P1;PMS_P2;Temp;Humidity;BMP_temperature;BMP_pressure;BME280_temperature;BME280_humidity;BME280_pressure;Samples;Min_cycle;Max_cycle;Signal;HPM_P1;HPM_P2
2022/03/02 00:01:09;;;;;;;13.43;8.48;;;6.30;98.50;;;;;;5054876;28;20024;-84
2022/03/02 00:03:36;;;;;;;14.38;8.82;;;6.30;99.00;;;;;;5053580;28;20463;-84
2022/03/02 00:06:02;;;;;;;15.52;8.60;;;6.30;99.10;;;;;;5053352;28;20132;-84
2022/03/02 00:08:28;;;;;;;13.77;8.05;;;6.30;98.80;;;;;;5053539;28;20124;-84
2022/03/02 00:10:54;;;;;;;14.13;8.55;;;6.30;98.10;;;;;;5054707;28;20505;-84
2022/03/02 00:13:20;;;;;;;17.85;9.35;;;6.30;98.50;;;;;;5052335;28;20025;-84
2022/03/02 00:15:47;;;;;;;13.52;8.15;;;6.30;97.60;;;;;;5054591;28;20527;-84
2022/03/02 00:18:13;;;;;;;13.85;8.30;;;6.10;97.00;;;;;;5053366;28;20480;-84
2022/03/02 00:20:38;;;;;;;16.88;9.13;;;6.10;96.90;;;;;;5054525;28;20024;-84
2022/03/02 00:23:04;;;;;;;14.10;8.60;;;6.10;96.90;;;;;;5053194;28;20490;-84
2022/03/02 00:25:30;;;;;;;16.00;9.50;;;6.10;96.90;;;;;;5053177;28;20036;-84
2022/03/02 00:27:55;;;;;;;14.60;8.85;;;6.10;96.90;;;;;;5053057;28;20025;-84
2022/03/02 00:30:23;;;;;;;17.98;8.93;;;6.10;96.90;;;;;;5053032;28;20102;-84
2022/03/02 00:32:48;;;;;;;15.40;9.07;;;6.10;96.90;;;;;;5052944;28;20120;-83
2022/03/02 00:35:14;;;;;;;16.80;9.32;;;6.10;97.00;;;;;;5052922;28;20052;-84
2022/03/02 00:37:40;;;;;;;15.57;9.32;;;6.10;97.00;;;;;;5052918;28;20028;-84
2022/03/02 00:40:06;;;;;;;15.20;8.70;;;6.10;97.00;;;;;;5052938;28;20473;-84
2022/03/02 00:42:32;;;;;;;14.52;8.77;;;6.10;97.00;;;;;;5054339;28;20049;-83
2022/03/02 00:44:58;;;;;;;16.10;9.15;;;6.10;97.00;;;;;;5052832;28;20091;-84
2022/03/02 00:47:24;;;;;;;13.75;8.48;;;6.10;97.00;;;;;;5052731;28;20025;-84
2022/03/02 00:49:50;;;;;;;15.48;9.15;;;6.00;97.00;;;;;;5052679;28;20067;-84
2022/03/02 00:52:16;;;;;;;15.05;8.48;;;6.00;97.00;;;;;;5052437;28;20616;-84
2022/03/02 00:54:42;;;;;;;14.10;8.48;;;6.00;97.00;;;;;;5054176;28;20461;-84
2022/03/02 00:57:08;;;;;;;13.82;8.93;;;6.00;97.10;;;;;;5053781;28;20028;-84
2022/03/02 00:59:33;;;;;;;13.57;9.10;;;6.00;97.00;;;;;;5052476;28;20036;-84
2022/03/02 01:01:59;;;;;;;16.00;9.25;;;6.00;97.00;;;;;;5052493;28;20102;-84
2022/03/02 01:04:25;;;;;;;17.83;9.30;;;6.00;97.00;;;;;;5052252;28;20409;-84
2022/03/02 01:06:51;;;;;;;15.25;9.35;;;6.00;97.10;;;;;;5052340;28;20025;-84
2022/03/02 01:09:16;;;;;;;18.60;9.35;;;6.00;97.10;;;;;;5052350;28;20047;-84
2022/03/02 01:11:42;;;;;;;14.52;9.15;;;6.00;97.20;;;;;;5052545;28;20102;-84
2022/03/02 01:14:08;;;;;;;16.88;9.63;;;6.00;97.10;;;;;;5053499;28;20389;-84
2022/03/02 01:16:34;;;;;;;18.13;8.98;;;6.00;97.20;;;;;;5053459;28;20388;-85
2022/03/02 01:19:00;;;;;;;16.92;9.50;;;6.00;97.20;;;;;;5053461;28;20096;-84
2022/03/02 01:21:26;;;;;;;14.60;9.13;;;6.00;97.20;;;;;;5052402;28;20021;-84
2022/03/02 01:23:56;;;;;;;15.63;8.88;;;6.00;97.20;;;;;;5051998;28;20037;-84
2022/03/02 01:26:24;;;;;;;13.80;8.68;;;6.00;97.20;;;;;;5053672;28;20021;-84
2022/03/02 01:28:51;;;;;;;16.15;9.05;;;6.00;97.10;;;;;;5053344;28;20024;-84
2022/03/02 01:31:18;;;;;;;14.65;8.70;;;5.90;97.20;;;;;;5051976;28;20488;-84
2022/03/02 01:33:43;;;;;;;15.85;9.45;;;6.00;97.30;;;;;;5051921;28;20111;-84
2022/03/02 01:36:09;;;;;;;13.88;8.35;;;5.90;97.30;;;;;;5051906;28;20055;-84
2022/03/02 01:38:35;;;;;;;16.02;9.20;;;5.90;97.60;;;;;;5052232;28;20017;-84
2022/03/02 01:41:00;;;;;;;17.90;8.52;;;6.00;98.20;;;;;;5051843;28;20029;-84
2022/03/02 01:43:27;;;;;;;16.25;9.07;;;6.00;98.70;;;;;;5051876;28;20028;-85
2022/03/02 01:45:54;;;;;;;15.68;9.48;;;6.00;99.10;;;;;;5051850;28;20124;-84
2022/03/02 01:48:19;;;;;;;16.38;9.00;;;6.00;99.30;;;;;;5051898;28;20447;-84
2022/03/02 01:50:45;;;;;;;16.50;9.50;;;6.00;99.80;;;;;;5051774;28;20111;-84
2022/03/02 01:53:11;;;;;;;17.58;8.98;;;6.00;99.90;;;;;;5051595;28;20366;-84
2022/03/02 01:55:37;;;;;;;12.45;8.40;;;6.00;99.90;;;;;;5051690;28;20476;-84
2022/03/02 01:58:03;;;;;;;15.90;9.05;;;6.00;99.90;;;;;;5051662;28;20028;-84
2022/03/02 02:00:31;;;;;;;16.73;8.43;;;6.00;99.90;;;;;;5051618;28;20066;-84
2022/03/02 02:02:56;;;;;;;14.48;8.05;;;6.00;99.90;;;;;;5051644;28;20021;-84
2022/03/02 02:05:23;;;;;;;13.63;8.73;;;6.00;99.90;;;;;;5038557;28;20053;-84
2022/03/02 02:07:49;;;;;;;15.68;8.43;;;6.00;99.90;;;;;;5015147;28;20080;-84
2022/03/02 02:10:15;;;;;;;17.42;8.95;;;5.90;99.90;;;;;;5015217;28;20036;-85
2022/03/02 02:12:41;;;;;;;13.65;8.80;;;5.90;99.90;;;;;;5015133;28;20064;-85
2022/03/02 02:15:09;;;;;;;15.35;8.75;;;5.90;99.90;;;;;;5015195;28;20045;-85
2022/03/02 02:17:35;;;;;;;16.92;8.70;;;5.90;99.90;;;;;;5015159;28;20026;-84
2022/03/02 02:20:03;;;;;;;13.20;8.00;;;5.90;99.90;;;;;;5032888;28;20017;-84
2022/03/02 02:22:29;;;;;;;15.60;8.85;;;5.90;99.90;;;;;;5015087;28;20072;-85
2022/03/02 02:24:54;;;;;;;14.70;8.07;;;5.90;99.90;;;;;;5015131;28;20030;-84
2022/03/02 02:27:20;;;;;;;14.60;8.70;;;5.90;99.90;;;;;;5015015;28;20026;-84
2022/03/02 02:29:48;;;;;;;14.32;8.20;;;5.90;99.70;;;;;;5015306;28;20056;-85
2022/03/02 02:32:14;;;;;;;14.70;8.13;;;5.90;99.90;;;;;;5014911;28;20083;-84
2022/03/02 02:34:40;;;;;;;13.05;7.85;;;5.90;99.90;;;;;;5015068;28;20493;-84
2022/03/02 02:37:07;;;;;;;14.57;8.40;;;5.80;99.90;;;;;;5018113;28;20374;-84
2022/03/02 02:39:35;;;;;;;12.88;8.00;;;5.90;99.90;;;;;;5018980;28;20029;-84
2022/03/02 02:42:05;;;;;;;13.25;8.10;;;5.90;99.90;;;;;;5036464;28;20099;-85
2022/03/02 02:44:32;;;;;;;14.77;8.90;;;5.80;99.90;;;;;;5018649;28;20028;-84
2022/03/02 02:46:58;;;;;;;11.27;7.70;;;5.80;99.90;;;;;;5018634;28;20025;-84
2022/03/02 02:49:25;;;;;;;14.75;8.38;;;5.70;99.90;;;;;;5018597;28;20047;-84
2022/03/02 02:51:53;;;;;;;13.70;8.40;;;5.70;97.50;;;;;;5018401;28;20028;-84
2022/03/02 02:54:20;;;;;;;11.85;7.88;;;5.70;97.50;;;;;;5018379;28;20029;-84
2022/03/02 02:56:46;;;;;;;13.50;8.02;;;5.70;97.50;;;;;;5018447;28;20076;-84
2022/03/02 02:59:11;;;;;;;12.80;8.18;;;5.60;97.50;;;;;;5036137;28;20026;-84
2022/03/02 03:01:37;;;;;;;13.88;8.60;;;5.60;97.50;;;;;;5018338;28;20109;-84
2022/03/02 03:04:03;;;;;;;13.20;8.10;;;5.60;97.50;;;;;;5021672;28;20057;-84
2022/03/02 03:06:29;;;;;;;12.82;7.88;;;5.70;97.60;;;;;;5054746;28;20029;-84
2022/03/02 03:08:55;;;;;;;12.88;7.85;;;5.60;97.50;;;;;;5054582;28;20035;-84
2022/03/02 03:11:21;;;;;;;13.65;8.43;;;5.60;97.60;;;;;;5054601;28;20040;-84
2022/03/02 03:13:47;;;;;;;13.48;7.63;;;5.60;97.60;;;;;;5055754;28;20025;-84
2022/03/02 03:16:12;;;;;;;14.25;8.77;;;5.60;97.60;;;;;;5054543;28;20177;-84
2022/03/02 03:18:38;;;;;;;13.80;8.23;;;5.60;97.60;;;;;;5054441;28;20116;-85
2022/03/02 03:21:04;;;;;;;14.07;7.95;;;5.60;97.60;;;;;;5054365;28;20032;-84
2022/03/02 03:23:29;;;;;;;11.82;7.93;;;5.60;97.60;;;;;;5054357;28;20025;-84
2022/03/02 03:25:55;;;;;;;13.93;8.07;;;5.50;97.60;;;;;;5054352;28;20447;-84
2022/03/02 03:28:21;;;;;;;14.68;8.68;;;5.50;97.60;;;;;;5054231;28;20074;-84
2022/03/02 03:30:47;;;;;;;14.05;8.60;;;5.50;97.70;;;;;;5054249;28;20056;-85
2022/03/02 03:33:12;;;;;;;14.40;8.40;;;5.50;97.60;;;;;;5054093;28;20028;-84
2022/03/02 03:35:38;;;;;;;13.63;8.05;;;5.50;97.60;;;;;;5054091;28;20021;-84
2022/03/02 03:38:04;;;;;;;13.15;7.85;;;5.50;97.70;;;;;;5054377;28;20618;-84
2022/03/02 03:40:30;;;;;;;12.98;7.85;;;5.50;97.70;;;;;;5054014;28;20057;-84
2022/03/02 03:42:57;;;;;;;12.35;7.95;;;5.50;97.60;;;;;;5055248;28;20075;-84
2022/03/02 03:45:23;;;;;;;14.38;8.25;;;5.50;97.70;;;;;;5053899;28;20021;-84
2022/03/02 03:47:49;;;;;;;12.85;7.35;;;5.50;97.70;;;;;;5055124;28;20028;-84
2022/03/02 03:50:15;;;;;;;15.18;8.23;;;5.50;97.80;;;;;;5053800;28;20033;-84
2022/03/02 03:52:41;;;;;;;15.57;8.48;;;5.50;97.70;;;;;;5053690;28;20124;-84
2022/03/02 03:55:09;;;;;;;15.80;8.10;;;5.50;97.70;;;;;;5053919;28;20029;-84
2022/03/02 03:57:35;;;;;;;13.30;8.32;;;5.50;97.80;;;;;;5053659;28;20090;-84
2022/03/02 04:00:02;;;;;;;15.30;8.13;;;5.50;97.80;;;;;;5053700;28;20052;-84
2022/03/02 04:02:28;;;;;;;12.57;8.30;;;5.40;97.80;;;;;;5053631;28;20029;-83
2022/03/02 04:04:53;;;;;;;14.93;8.90;;;5.50;97.80;;;;;;5053394;28;20053;-84
2022/03/02 04:07:19;;;;;;;15.40;8.35;;;5.40;97.70;;;;;;5053549;28;20027;-84
2022/03/02 04:09:45;;;;;;;13.88;8.15;;;5.40;97.70;;;;;;5053486;28;20028;-84
2022/03/02 04:12:10;;;;;;;12.13;8.40;;;5.40;97.70;;;;;;5053367;28;20034;-84
2022/03/02 04:14:36;;;;;;;15.15;8.05;;;5.40;97.70;;;;;;5053343;28;20111;-84
2022/03/02 04:17:02;;;;;;;12.52;8.10;;;5.40;97.80;;;;;;5053404;28;20025;-84
2022/03/02 04:19:28;;;;;;;14.45;8.15;;;5.40;97.80;;;;;;5053294;28;20481;-84
2022/03/02 04:21:54;;;;;;;12.43;8.10;;;5.40;97.80;;;;;;5053212;28;20120;-84
2022/03/02 04:24:19;;;;;;;12.88;7.35;;;5.40;97.80;;;;;;5053247;28;20029;-84
2022/03/02 04:26:45;;;;;;;13.85;8.80;;;5.40;97.80;;;;;;5053164;28;20025;-84
2022/03/02 04:29:11;;;;;;;13.55;8.20;;;5.30;97.70;;;;;;5054378;28;20025;-84
2022/03/02 04:31:36;;;;;;;12.10;7.50;;;5.30;97.70;;;;;;5054298;28;20059;-84
2022/03/02 04:34:02;;;;;;;12.65;7.72;;;5.30;97.80;;;;;;5052969;28;20028;-84
2022/03/02 04:36:28;;;;;;;16.20;8.48;;;5.30;97.70;;;;;;5052959;28;20029;-84
2022/03/02 04:38:53;;;;;;;12.65;8.27;;;5.30;97.70;;;;;;5054485;28;20025;-84
2022/03/02 04:41:19;;;;;;;14.35;8.48;;;5.30;97.80;;;;;;5052821;28;20025;-84
2022/03/02 04:43:45;;;;;;;13.63;8.75;;;5.30;97.80;;;;;;5054336;28;20032;-84
2022/03/02 04:46:11;;;;;;;12.88;7.45;;;5.30;97.80;;;;;;5052791;28;20025;-84
2022/03/02 04:48:37;;;;;;;14.70;8.30;;;5.30;97.80;;;;;;5053039;28;20029;-84
2022/03/02 04:51:02;;;;;;;12.65;7.93;;;5.20;97.70;;;;;;5052687;28;20112;-84
2022/03/02 04:53:28;;;;;;;11.73;7.43;;;5.30;97.80;;;;;;5052464;28;20074;-84
2022/03/02 04:55:54;;;;;;;12.77;7.85;;;5.30;97.90;;;;;;5052648;28;20108;-85
2022/03/02 04:58:20;;;;;;;12.35;7.95;;;5.30;97.80;;;;;;5052042;28;20021;-85
2022/03/02 05:00:45;;;;;;;14.82;7.90;;;5.20;97.80;;;;;;5052478;28;20032;-84
2022/03/02 05:03:11;;;;;;;13.20;7.90;;;5.30;97.80;;;;;;5052422;28;20079;-84
2022/03/02 05:05:38;;;;;;;15.82;8.27;;;5.20;97.70;;;;;;5037113;28;20049;-84
2022/03/02 05:08:08;;;;;;;14.20;8.00;;;5.20;97.80;;;;;;5016810;28;20460;-84
2022/03/02 05:10:34;;;;;;;14.98;8.15;;;5.20;97.80;;;;;;5033695;28;20078;-84
2022/03/02 05:13:02;;;;;;;14.02;8.38;;;5.20;97.90;;;;;;5015803;28;20029;-84
2022/03/02 05:15:28;;;;;;;13.02;8.15;;;5.20;97.80;;;;;;5033840;28;20021;-84
2022/03/02 05:17:53;;;;;;;13.98;7.80;;;5.20;97.70;;;;;;5016082;28;20044;-84
2022/03/02 05:20:20;;;;;;;17.42;8.52;;;5.20;97.70;;;;;;5015972;28;20021;-84
2022/03/02 05:22:46;;;;;;;12.48;7.65;;;5.20;97.80;;;;;;5015527;28;20025;-84
2022/03/02 05:25:13;;;;;;;15.00;8.23;;;5.20;97.90;;;;;;5015618;28;20036;-85
2022/03/02 05:27:40;;;;;;;13.48;8.13;;;5.20;98.00;;;;;;5033346;28;20501;-85
2022/03/02 05:30:07;;;;;;;14.52;8.15;;;5.30;99.10;;;;;;5033646;28;20021;-84
2022/03/02 05:32:33;;;;;;;15.55;8.93;;;5.30;99.90;;;;;;5015510;28;20029;-85
2022/03/02 05:34:59;;;;;;;15.85;8.35;;;5.30;99.90;;;;;;5015534;28;20481;-84
2022/03/02 05:37:25;;;;;;;15.85;8.50;;;5.30;99.90;;;;;;5015510;28;20021;-84
2022/03/02 05:39:51;;;;;;;13.80;8.02;;;5.30;99.90;;;;;;5033297;28;20021;-84
2022/03/02 05:42:16;;;;;;;16.42;9.00;;;5.10;97.50;;;;;;5015420;28;20535;-83
2022/03/02 05:44:44;;;;;;;13.93;8.48;;;5.10;97.80;;;;;;5015485;28;20388;-83
2022/03/02 05:47:10;;;;;;;15.43;9.70;;;5.10;97.80;;;;;;5015482;28;20481;-84
2022/03/02 05:49:35;;;;;;;17.98;10.15;;;5.10;97.80;;;;;;5015428;28;20075;-83
2022/03/02 05:52:02;;;;;;;17.50;10.50;;;5.10;97.80;;;;;;5033298;28;20017;-83
2022/03/02 05:54:28;;;;;;;16.73;10.38;;;5.10;97.80;;;;;;5015282;28;20175;-83
2022/03/02 05:56:53;;;;;;;17.17;10.32;;;5.10;97.80;;;;;;5015423;28;20083;-83
2022/03/02 05:59:19;;;;;;;16.10;9.90;;;5.00;97.70;;;;;;5015391;28;20477;-84
2022/03/02 06:01:45;;;;;;;18.70;10.27;;;5.00;97.70;;;;;;5015338;28;20113;-84
2022/03/02 06:04:12;;;;;;;16.75;9.90;;;5.00;97.80;;;;;;5020509;28;20049;-83
2022/03/02 06:06:38;;;;;;;17.00;9.32;;;5.00;97.70;;;;;;5052813;28;20063;-84
2022/03/02 06:09:06;;;;;;;19.00;9.57;;;5.00;97.70;;;;;;5052682;28;20033;-84
2022/03/02 06:11:33;;;;;;;14.27;8.82;;;5.00;97.80;;;;;;5053980;28;20031;-84
2022/03/02 06:13:59;;;;;;;14.30;8.90;;;5.00;97.80;;;;;;5055608;28;20430;-83
2022/03/02 06:16:26;;;;;;;16.15;9.77;;;5.00;97.80;;;;;;5055611;28;20021;-83
2022/03/02 06:18:52;;;;;;;14.25;8.88;;;5.00;98.10;;;;;;5055758;28;20020;-83
2022/03/02 06:21:30;;;;;;;15.90;9.35;;;5.00;97.80;;;;;;5055530;28;20484;-83
2022/03/02 06:23:56;;;;;;;15.52;9.45;;;5.00;97.80;;;;;;5055409;28;20116;-83
2022/03/02 06:26:25;;;;;;;15.35;9.07;;;5.00;97.80;;;;;;5055484;28;20511;-83
2022/03/02 06:28:51;;;;;;;13.88;8.65;;;5.00;97.80;;;;;;5055361;28;20025;-83
2022/03/02 06:31:18;;;;;;;14.50;8.70;;;5.00;97.80;;;;;;5055303;28;20048;-83
2022/03/02 06:33:44;;;;;;;14.88;8.88;;;5.00;97.80;;;;;;5055234;28;20025;-84
2022/03/02 06:36:10;;;;;;;14.65;8.82;;;5.00;97.90;;;;;;5055302;28;20504;-84
2022/03/02 06:38:36;;;;;;;16.35;9.40;;;5.00;97.90;;;;;;5056406;28;20017;-84
2022/03/02 06:41:30;;;;;;;17.48;9.32;;;5.00;97.80;;;;;;5055121;28;20091;-84
2022/03/02 06:44:21;;;;;;;15.00;8.98;;;5.00;97.80;;;;;;5055138;28;20503;-83
2022/03/02 06:47:01;;;;;;;14.52;9.18;;;5.00;97.90;;;;;;5056373;28;20158;-83
2022/03/02 06:49:44;;;;;;;15.45;8.77;;;5.00;97.90;;;;;;5055046;28;20488;-84
2022/03/02 06:52:11;;;;;;;15.88;8.60;;;5.00;97.90;;;;;;5054955;28;20056;-84
2022/03/02 06:54:42;;;;;;;15.77;8.88;;;5.00;97.90;;;;;;5054847;28;20036;-84
2022/03/02 06:57:12;;;;;;;15.38;9.18;;;5.00;97.90;;;;;;5054891;28;20032;-84
2022/03/02 06:59:40;;;;;;;16.23;8.52;;;5.00;97.90;;;;;;5056438;28;20040;-84
2022/03/02 07:02:07;;;;;;;12.55;8.23;;;5.00;97.90;;;;;;5056009;28;20028;-84
2022/03/02 07:04:41;;;;;;;13.30;8.75;;;5.00;98.30;;;;;;5054083;28;20053;-84
2022/03/02 07:07:08;;;;;;;16.10;8.43;;;5.00;98.00;;;;;;5053473;28;20108;-84
2022/03/02 07:09:34;;;;;;;12.23;8.23;;;5.00;98.00;;;;;;5053348;28;20032;-84
2022/03/02 07:12:05;;;;;;;13.77;8.32;;;5.00;98.00;;;;;;5053353;28;20025;-83
2022/03/02 07:14:33;;;;;;;16.17;9.05;;;5.00;98.00;;;;;;5053254;28;20456;-84
2022/03/02 07:17:00;;;;;;;15.07;8.77;;;5.00;98.10;;;;;;5053293;28;20104;-83
2022/03/02 07:19:27;;;;;;;14.40;8.93;;;5.00;98.00;;;;;;5053210;28;20021;-84
2022/03/02 07:21:55;;;;;;;17.00;9.63;;;5.10;98.10;;;;;;5052818;28;20032;-83
2022/03/02 07:24:22;;;;;;;17.20;8.40;;;5.10;98.10;;;;;;5053079;28;20028;-84
2022/03/02 07:26:54;;;;;;;12.98;8.65;;;5.10;98.10;;;;;;5053058;28;20450;-84
2022/03/02 07:29:22;;;;;;;15.05;9.10;;;5.10;98.10;;;;;;5053047;28;20025;-83
2022/03/02 07:31:51;;;;;;;14.93;8.60;;;5.10;98.10;;;;;;5053065;28;20025;-84
2022/03/02 07:34:17;;;;;;;12.98;8.05;;;5.10;98.10;;;;;;5054230;28;20106;-84
2022/03/02 07:36:44;;;;;;;15.98;8.93;;;5.10;98.20;;;;;;5053000;28;20441;-83
2022/03/02 07:39:11;;;;;;;18.25;9.40;;;5.10;98.10;;;;;;5054266;28;20052;-83
2022/03/02 07:41:37;;;;;;;15.32;9.35;;;5.10;98.10;;;;;;5052845;28;20078;-84
2022/03/02 07:44:04;;;;;;;16.70;9.20;;;5.10;98.10;;;;;;5052835;28;20481;-83
2022/03/02 07:46:30;;;;;;;13.10;8.63;;;5.10;98.20;;;;;;5052836;28;20028;-83
2022/03/02 07:48:56;;;;;;;13.82;9.18;;;5.20;98.20;;;;;;5052873;28;20112;-83
2022/03/02 07:51:24;;;;;;;15.25;8.77;;;5.20;98.20;;;;;;5053110;28;20125;-86
2022/03/02 07:53:51;;;;;;;15.45;8.90;;;5.20;98.20;;;;;;5053919;28;20036;-86
2022/03/02 07:56:18;;;;;;;13.75;8.90;;;5.30;98.20;;;;;;5052740;28;20021;-86
2022/03/02 07:58:45;;;;;;;15.52;8.73;;;5.30;98.10;;;;;;5052723;28;20396;-86
2022/03/02 08:01:16;;;;;;;14.98;8.63;;;5.40;98.10;;;;;;5052663;28;20025;-86
2022/03/02 08:03:44;;;;;;;14.13;8.70;;;5.40;98.00;;;;;;5011995;28;1150836;-86
2022/03/02 08:06:10;;;;;;;16.45;9.32;;;5.40;98.10;;;;;;5017171;28;20028;-85
2022/03/02 08:08:37;;;;;;;13.43;8.88;;;5.40;98.00;;;;;;5034868;28;20100;-86
2022/03/02 08:11:06;;;;;;;13.73;8.55;;;5.40;98.00;;;;;;5017115;28;20057;-86
2022/03/02 08:13:34;;;;;;;14.60;9.38;;;5.50;98.00;;;;;;5016928;28;20052;-86
2022/03/02 08:16:00;;;;;;;15.43;8.48;;;5.60;97.90;;;;;;5017012;28;20067;-85
2022/03/02 08:18:27;;;;;;;13.98;9.35;;;5.60;97.90;;;;;;5016964;28;20025;-85
2022/03/02 08:20:55;;;;;;;15.45;9.05;;;5.70;97.80;;;;;;5016910;28;20029;-84
2022/03/02 08:23:23;;;;;;;11.95;8.38;;;5.80;97.70;;;;;;5016842;28;20047;-84
2022/03/02 08:25:53;;;;;;;14.20;8.82;;;5.80;97.60;;;;;;5016759;28;20083;-84
2022/03/02 08:28:23;;;;;;;12.70;8.18;;;5.80;97.60;;;;;;5016772;28;20520;-84
2022/03/02 08:30:51;;;;;;;12.85;8.25;;;5.80;97.60;;;;;;5034492;28;20450;-84
2022/03/02 08:33:25;;;;;;;13.77;8.48;;;5.80;97.60;;;;;;5016291;28;20025;-83
2022/03/02 08:35:52;;;;;;;17.80;8.55;;;5.80;97.70;;;;;;5016668;28;20021;-83
2022/03/02 08:38:17;;;;;;;14.82;8.88;;;5.70;97.70;;;;;;5016548;28;20393;-83
2022/03/02 08:40:43;;;;;;;15.35;8.68;;;5.70;97.80;;;;;;5016607;28;20017;-84
2022/03/02 08:43:09;;;;;;;16.10;9.00;;;5.70;97.80;;;;;;5016423;28;20112;-84
2022/03/02 08:45:35;;;;;;;14.85;9.35;;;5.70;97.90;;;;;;5016436;28;20029;-83
2022/03/02 08:48:03;;;;;;;14.73;9.38;;;5.60;98.00;;;;;;5016363;28;20389;-83
2022/03/02 08:50:29;;;;;;;15.77;9.30;;;5.60;98.00;;;;;;5016306;28;20120;-83
2022/03/02 08:52:56;;;;;;;17.10;9.75;;;5.60;98.10;;;;;;5016162;28;20397;-83
2022/03/02 08:55:24;;;;;;;15.73;9.40;;;5.60;98.20;;;;;;5034007;28;20018;-83
2022/03/02 08:57:53;;;;;;;19.92;9.48;;;5.60;98.20;;;;;;5016301;28;20030;-83
2022/03/02 09:00:19;;;;;;;15.98;9.50;;;5.60;98.20;;;;;;5016219;28;20040;-83
2022/03/02 09:02:47;;;;;;;14.77;9.15;;;5.60;98.30;;;;;;5016092;28;20029;-83
2022/03/02 09:05:13;;;;;;;14.57;9.30;;;5.60;98.30;;;;;;5038421;28;20398;-83
2022/03/02 09:07:40;;;;;;;16.67;9.55;;;5.60;98.30;;;;;;5052984;28;20350;-83
2022/03/02 09:10:06;;;;;;;16.27;9.55;;;5.70;98.30;;;;;;5052340;28;20017;-83
2022/03/02 09:12:33;;;;;;;17.13;9.95;;;5.70;98.30;;;;;;5053589;28;20025;-83
2022/03/02 09:14:59;;;;;;;17.23;9.63;;;5.70;98.40;;;;;;5053590;28;20393;-83
2022/03/02 09:17:25;;;;;;;16.73;9.70;;;5.70;98.30;;;;;;5052741;28;20026;-83
2022/03/02 09:19:54;;;;;;;17.50;9.68;;;5.70;98.40;;;;;;5052292;28;20471;-83
2022/03/02 09:22:23;;;;;;;16.73;9.95;;;5.70;98.40;;;;;;5053724;28;20018;-83
2022/03/02 09:24:49;;;;;;;16.30;10.30;;;5.70;98.40;;;;;;5052171;28;20024;-83
2022/03/02 09:27:18;;;;;;;17.98;9.63;;;5.70;98.50;;;;;;5052105;28;20029;-83
2022/03/02 09:29:46;;;;;;;17.08;9.70;;;5.70;98.50;;;;;;5053532;28;20096;-83
2022/03/02 09:32:14;;;;;;;22.30;9.20;;;5.70;98.60;;;;;;5053319;28;20053;-83
2022/03/02 09:34:45;;;;;;;15.95;9.23;;;5.70;98.60;;;;;;5053150;28;20380;-86
2022/03/02 09:37:13;;;;;;;15.40;8.95;;;5.70;98.60;;;;;;5052001;28;20021;-83
2022/03/02 09:39:38;;;;;;;16.67;9.38;;;5.70;98.60;;;;;;5051945;28;20036;-82
2022/03/02 09:42:11;;;;;;;18.02;10.13;;;5.80;98.70;;;;;;5051890;28;20492;-82
2022/03/02 09:44:45;;;;;;;15.15;9.15;;;5.70;98.60;;;;;;5053323;28;20108;-82
2022/03/02 09:47:16;;;;;;;19.92;10.68;;;5.80;98.70;;;;;;5051947;28;20378;-83
2022/03/02 09:49:48;;;;;;;18.23;9.70;;;5.80;98.70;;;;;;5051938;28;20442;-83
2022/03/02 09:52:21;;;;;;;17.58;9.70;;;5.80;98.70;;;;;;5051650;28;20029;-82
2022/03/02 09:54:53;;;;;;;17.63;10.63;;;5.80;98.60;;;;;;5051713;28;20053;-83
2022/03/02 09:57:20;;;;;;;17.52;8.95;;;5.80;98.60;;;;;;5052991;28;20022;-81
2022/03/02 09:59:59;;;;;;;15.50;9.07;;;5.80;98.60;;;;;;5051721;28;20021;-81
2022/03/02 10:02:37;;;;;;;14.45;9.55;;;5.90;98.50;;;;;;5051743;28;20076;-82
2022/03/02 10:05:12;;;;;;;13.68;9.43;;;5.90;98.50;;;;;;5051505;28;20041;-82
2022/03/02 10:07:44;;;;;;;15.68;9.00;;;5.90;98.50;;;;;;5052972;28;20032;-81
2022/03/02 10:10:17;;;;;;;14.27;8.68;;;5.90;98.50;;;;;;5051676;28;20022;-81
2022/03/02 10:12:43;;;;;;;15.80;9.40;;;5.90;98.40;;;;;;5052198;28;20035;-82
2022/03/02 10:15:14;;;;;;;15.77;8.98;;;5.80;98.30;;;;;;5051598;28;20171;-82
2022/03/02 10:17:43;;;;;;;14.32;8.32;;;5.90;98.30;;;;;;5051590;28;20071;-82
2022/03/02 10:20:18;;;;;;;13.88;9.05;;;5.90;98.30;;;;;;5051792;28;20036;-82
2022/03/02 10:23:18;;;;;;;13.63;8.65;;;5.90;98.30;;;;;;5051609;28;20029;-82
2022/03/02 10:25:59;;;;;;;12.13;8.25;;;6.00;98.30;;;;;;5052833;28;20027;-82
2022/03/02 10:28:47;;;;;;;14.27;8.55;;;6.00;98.20;;;;;;5051509;28;20031;-82
2022/03/02 10:31:23;;;;;;;15.63;8.68;;;6.00;98.20;;;;;;5052240;28;20527;-82
2022/03/02 10:34:01;;;;;;;13.02;8.30;;;6.00;98.10;;;;;;5051373;28;20120;-82
2022/03/02 10:36:30;;;;;;;15.80;8.68;;;6.00;98.00;;;;;;5051468;28;20434;-82
2022/03/02 10:39:05;;;;;;;12.93;8.15;;;6.00;98.10;;;;;;5051393;28;20507;-82
2022/03/02 10:41:35;;;;;;;15.85;8.38;;;6.00;98.20;;;;;;5052735;28;20025;-82
2022/03/02 10:44:09;;;;;;;12.93;7.85;;;6.00;98.10;;;;;;5051410;28;20025;-82
2022/03/02 10:46:40;;;;;;;14.45;7.97;;;6.00;98.10;;;;;;5051981;28;20029;-83
2022/03/02 10:49:18;;;;;;;13.93;8.75;;;6.10;98.10;;;;;;5051382;28;20029;-83
2022/03/02 10:51:45;;;;;;;14.93;8.75;;;6.10;98.00;;;;;;5051277;28;20078;-82
2022/03/02 10:54:17;;;;;;;14.48;8.82;;;6.00;98.00;;;;;;5052429;28;20480;-82
2022/03/02 10:56:44;;;;;;;11.43;7.68;;;6.00;98.10;;;;;;5053533;28;20018;-82
2022/03/02 10:59:17;;;;;;;13.90;7.95;;;6.10;98.10;;;;;;5056214;28;20477;-82
2022/03/02 11:01:44;;;;;;;10.68;7.38;;;6.10;98.10;;;;;;5056252;28;20358;-83
2022/03/02 11:04:11;;;;;;;15.30;8.32;;;6.10;98.10;;;;;;5054590;28;20040;-82
2022/03/02 11:06:38;;;;;;;12.13;8.40;;;6.10;98.10;;;;;;5055052;28;20114;-82
2022/03/02 11:09:05;;;;;;;13.23;7.97;;;6.10;98.10;;;;;;5054783;28;20388;-82
2022/03/02 11:11:33;;;;;;;13.63;7.50;;;6.20;98.00;;;;;;5054696;28;20025;-82
2022/03/02 11:13:59;;;;;;;13.93;8.18;;;6.20;98.00;;;;;;5054609;28;20033;-82
2022/03/02 11:16:25;;;;;;;12.48;8.02;;;6.20;98.00;;;;;;5054324;28;20388;-82
2022/03/02 11:18:52;;;;;;;13.07;7.22;;;6.20;97.90;;;;;;5054552;28;20485;-82
2022/03/02 11:21:21;;;;;;;12.93;8.00;;;6.30;98.00;;;;;;5055919;28;20465;-83
2022/03/02 11:24:00;;;;;;;11.13;7.40;;;6.30;98.00;;;;;;5054413;28;20060;-83
2022/03/02 11:26:27;;;;;;;11.10;6.85;;;6.30;97.90;;;;;;5054447;28;20031;-83
2022/03/02 11:28:56;;;;;;;12.50;7.38;;;6.40;98.00;;;;;;5055692;28;20045;-82
2022/03/02 11:31:30;;;;;;;12.07;7.75;;;6.40;97.90;;;;;;5054283;28;20029;-83
2022/03/02 11:34:08;;;;;;;12.98;7.82;;;6.50;97.70;;;;;;5054236;28;20021;-83
2022/03/02 11:36:36;;;;;;;16.45;8.20;;;6.50;97.70;;;;;;5054285;28;20439;-83
2022/03/02 11:39:05;;;;;;;12.65;7.22;;;6.50;97.60;;;;;;5054149;28;20495;-83
2022/03/02 11:41:37;;;;;;;13.15;8.23;;;6.50;97.60;;;;;;5055539;28;20021;-82
2022/03/02 11:44:04;;;;;;;11.90;8.00;;;6.60;97.50;;;;;;5054119;28;20025;-82
2022/03/02 11:46:30;;;;;;;12.38;7.82;;;6.60;97.40;;;;;;5053960;28;20029;-83
2022/03/02 11:48:56;;;;;;;15.30;8.70;;;6.60;97.50;;;;;;5055263;28;20034;-82
2022/03/02 11:51:27;;;;;;;13.45;8.05;;;6.60;97.10;;;;;;5054267;28;20025;-82
2022/03/02 11:53:58;;;;;;;12.07;7.28;;;6.60;97.20;;;;;;5055074;28;20017;-82
2022/03/02 11:56:25;;;;;;;13.10;7.97;;;6.50;97.50;;;;;;5053861;28;20485;-83
2022/03/02 11:58:56;;;;;;;12.40;7.50;;;6.60;97.00;;;;;;5053863;28;20021;-82
2022/03/02 12:01:23;;;;;;;11.27;6.88;;;6.60;97.40;;;;;;5053819;28;20022;-82
2022/03/02 12:04:01;;;;;;;15.77;7.82;;;6.60;97.40;;;;;;5052109;28;20455;-83
2022/03/02 12:06:29;;;;;;;10.52;7.43;;;6.60;97.40;;;;;;5017258;28;20408;-83
2022/03/02 12:08:57;;;;;;;12.85;7.95;;;6.70;97.30;;;;;;5016025;28;20030;-82
2022/03/02 12:11:32;;;;;;;10.88;7.30;;;6.70;97.30;;;;;;5034888;28;20056;-82
2022/03/02 12:14:06;;;;;;;12.77;7.65;;;6.70;97.40;;;;;;5017417;28;20037;-82
2022/03/02 12:16:42;;;;;;;11.30;7.63;;;6.70;97.40;;;;;;5034800;28;20052;-83
2022/03/02 12:19:20;;;;;;;13.68;7.88;;;6.70;97.30;;;;;;5017032;28;20500;-83
2022/03/02 12:21:47;;;;;;;14.80;7.70;;;6.70;97.20;;;;;;5016965;28;20386;-83
2022/03/02 12:24:18;;;;;;;11.98;7.45;;;6.70;97.20;;;;;;5034626;28;20024;-83
2022/03/02 12:26:49;;;;;;;12.82;7.05;;;6.70;97.30;;;;;;5016959;28;20547;-82
2022/03/02 12:29:16;;;;;;;10.77;7.43;;;6.70;97.30;;;;;;5034490;28;20078;-82
2022/03/02 12:31:44;;;;;;;14.20;7.55;;;6.70;97.30;;;;;;5016702;28;20501;-82
2022/03/02 12:34:14;;;;;;;12.90;7.47;;;6.70;97.40;;;;;;5016581;28;20025;-82
2022/03/02 12:36:40;;;;;;;10.82;7.20;;;6.70;97.30;;;;;;5016567;28;20032;-82
2022/03/02 12:39:06;;;;;;;10.55;6.90;;;6.70;97.30;;;;;;5016582;28;20026;-82
2022/03/02 12:41:32;;;;;;;14.23;7.40;;;6.70;97.30;;;;;;5016497;28;20371;-82
2022/03/02 12:43:59;;;;;;;14.93;7.38;;;6.70;97.30;;;;;;5016531;28;20029;-82
2022/03/02 12:46:27;;;;;;;12.23;7.43;;;6.70;97.30;;;;;;5016399;28;20040;-82
2022/03/02 12:48:55;;;;;;;12.43;7.57;;;6.70;97.40;;;;;;5016448;28;20044;-82